Waldo, Ohio
Current Conditions -  °F | °C
As of 12:53 PM on Friday 28 Nov 2014 (Local Time) from KMNN Reporting Station
Overcast Overcast  
Wind Chill: -8°   Ceiling: 7000
Heat Index: -2°   Visibility: 8mi
Dew Point: -8°   Wind: 13mph
Humidity: 66%   Direction: 210°SSW
Pressure: 30.27"   Gusts: NA
Location:  40.46°N, 83.08°W
Report Text: KMNN 281753Z AUTO 21011KT 8SM SCT025 OVC070 M02/M08 A3027 RMK AO2 SLP265 60000 T10221078 11022 21061 58024 TSNO
Loading
Personal Weather Stations






























Interactive Weather Map New forecast layout! Learn more

10-Day Weather Forecast

Advertisements
Track Severe Weather on mobile